Saronic Champion — A8XF5 — position and weather

sailwx.info

Track history (hours):
 
Tides and Currents Weather Stations Pressure Air Temp Water Temp Dewpoint Dewpoint Depression Visibility Wind Speed Wind Dir Waves Ship Positions

Saronic Champion

Last reported at 2017-Apr-26 06:53 UTC. Time now 2017-May-25 05:15 UTC.
Position S 02°12' W 044°11'.
Warning: this ship's position is 28 days out of date.

Length 229 m; draft 14.9 m.

Type: Cargo ship. MMSI: 636014887.

Date/timePositionNaut miles runAvg speedWind from/ knotsBaromVisibWave heightAir tempDewpointWater temp
2017-Apr-26 06:53S 02°12' W 044°11'510.8
2017-Apr-26 06:26S 02°16' W 044°14'510.9
2017-Apr-26 05:57S 02°20' W 044°17'510.8
2017-Apr-26 05:30S 02°24' W 044°19'611.2
2017-Apr-26 05:01S 02°29' W 044°22'5 0.7
2017-Apr-25 22:45S 02°34' W 044°23'0 0.0
2017-Apr-25 22:29S 02°34' W 044°23'0 0.0
2017-Apr-25 21:24S 02°34' W 044°23'0 0.0
2017-Apr-25 20:59S 02°34' W 044°23'0 0.0
2017-Apr-25 20:23S 02°34' W 044°23'0 0.0
2017-Apr-25 19:59S 02°34' W 044°23'0 0.0
2017-Apr-25 19:30S 02°34' W 044°23'0 0.0
2017-Apr-25 19:00S 02°34' W 044°23'0 0.0
2017-Apr-25 18:21S 02°34' W 044°23'0 0.0
2017-Apr-25 17:54S 02°34' W 044°23'0 0.0
2017-Apr-25 17:30S 02°34' W 044°23'0 0.0
2017-Apr-25 16:45S 02°34' W 044°23'0 0.0
2017-Apr-25 16:18S 02°34' W 044°23'0 0.0
2017-Apr-25 16:00S 02°34' W 044°23'0 0.0
2017-Apr-25 15:29S 02°34' W 044°23'0 0.0
2017-Apr-25 14:59S 02°34' W 044°23'0 0.0
2017-Apr-25 13:53S 02°34' W 044°23'0 0.0
2017-Apr-25 13:26S 02°34' W 044°23'0 0.0
2017-Apr-25 12:57S 02°34' W 044°23'0 0.0
2017-Apr-25 11:41S 02°34' W 044°23'0 0.0
2017-Apr-25 11:29S 02°34' W 044°23'0 0.0
2017-Apr-25 10:59S 02°34' W 044°23'0 0.0
2017-Apr-25 10:29S 02°34' W 044°23'0 0.0
2017-Apr-25 09:59S 02°34' W 044°23'0 0.0
2017-Apr-25 09:29S 02°34' W 044°23'0 0.0
2017-Apr-25 08:59S 02°34' W 044°23'0 0.0
2017-Apr-25 08:29S 02°34' W 044°23'0 0.6
2017-Apr-25 08:00S 02°34' W 044°23'3 6.0
2017-Apr-25 07:30S 02°31' W 044°23'510.1
2017-Apr-25 07:00S 02°26' W 044°21'1 2.6
2017-Apr-25 06:31S 02°25' W 044°20'2 4.4
2017-Apr-25 06:01S 02°24' W 044°18'4 7.0
2017-Apr-25 05:30S 02°22' W 044°15'2 4.2
2017-Apr-25 05:00S 02°23' W 044°13'0 0.1
2017-Apr-25 04:29S 02°23' W 044°13'0 0.3
2017-Apr-25 03:59S 02°22' W 044°13'0 0.2
2017-Apr-25 03:29S 02°22' W 044°13'0 0.0
2017-Apr-25 02:59S 02°22' W 044°13'0 0.0
2017-Apr-25 02:29S 02°22' W 044°13'0 0.0
2017-Apr-25 01:59S 02°22' W 044°13'0 0.0
2017-Apr-25 01:29S 02°22' W 044°13'0 0.0
2017-Apr-25 00:59S 02°22' W 044°13'0 0.0
2017-Apr-25 00:29S 02°22' W 044°13'0 0.1
2017-Apr-24 23:59S 02°22' W 044°13'0 0.0
2017-Apr-24 23:29S 02°22' W 044°13'0 0.0
2017-Apr-24 22:59S 02°22' W 044°13'0 0.2
2017-Apr-24 22:29S 02°22' W 044°13'0 0.2
2017-Apr-24 21:59S 02°22' W 044°13'0 0.2
2017-Apr-24 21:29S 02°23' W 044°13'0 0.1
2017-Apr-24 20:56S 02°23' W 044°13'0 0.0
2017-Apr-24 20:29S 02°23' W 044°13'0 0.0
2017-Apr-24 19:59S 02°23' W 044°13'0 0.0
2017-Apr-24 19:29S 02°23' W 044°13'0 0.0
2017-Apr-24 18:59S 02°23' W 044°13'0 0.0
2017-Apr-24 18:29S 02°23' W 044°13'0 0.1
2017-Apr-24 17:59S 02°23' W 044°13'0 0.1
2017-Apr-24 17:29S 02°23' W 044°13'0 0.1
2017-Apr-24 16:59S 02°23' W 044°13'0 0.0
2017-Apr-24 16:29S 02°23' W 044°13'0 0.1
2017-Apr-24 15:59S 02°23' W 044°13'0 0.1
2017-Apr-24 15:29S 02°23' W 044°13'0 0.2
2017-Apr-24 14:59S 02°23' W 044°13'0 0.2
2017-Apr-24 14:29S 02°22' W 044°13'0 0.0
2017-Apr-24 13:26S 02°22' W 044°13'0 0.0
2017-Apr-24 12:56S 02°22' W 044°13'0 0.0
2017-Apr-24 12:26S 02°22' W 044°13'0 0.0
2017-Apr-24 11:59S 02°22' W 044°13'0 0.0
2017-Apr-24 11:29S 02°22' W 044°13'0 0.0
2017-Apr-24 10:59S 02°22' W 044°13'0 0.1
2017-Apr-24 10:29S 02°22' W 044°13'0 0.1
2017-Apr-24 09:59S 02°22' W 044°13'0 0.3
2017-Apr-24 09:29S 02°23' W 044°13'0 0.2
2017-Apr-24 08:59S 02°23' W 044°13'0 0.1
2017-Apr-24 08:29S 02°23' W 044°13'0 0.0
2017-Apr-24 07:59S 02°23' W 044°13'0 0.0
2017-Apr-24 07:26S 02°23' W 044°13'0 0.0
2017-Apr-24 06:59S 02°23' W 044°13'0 0.0
2017-Apr-24 06:29S 02°23' W 044°13'0 0.0
2017-Apr-24 05:59S 02°23' W 044°13'0 0.0
2017-Apr-24 05:29S 02°23' W 044°13'0 0.0
2017-Apr-24 04:59S 02°23' W 044°13'0 0.1
2017-Apr-24 04:29S 02°23' W 044°13'0 0.0
2017-Apr-24 03:59S 02°23' W 044°13'0 0.0
2017-Apr-24 03:29S 02°23' W 044°13'0 0.1
2017-Apr-24 02:59S 02°23' W 044°13'0 0.3
2017-Apr-24 02:29S 02°22' W 044°13'0 0.1
2017-Apr-24 01:59S 02°22' W 044°13'0 0.0
2017-Apr-24 01:29S 02°22' W 044°13'0 0.0
2017-Apr-24 00:59S 02°22' W 044°13'0 0.0
2017-Apr-24 00:29S 02°22' W 044°13'0 0.0
2017-Apr-23 23:59S 02°22' W 044°13'0 0.0
2017-Apr-23 23:29S 02°22' W 044°13'0 0.0
2017-Apr-23 22:59S 02°22' W 044°13'0 0.0
2017-Apr-23 22:29S 02°22' W 044°13'0 0.0
2017-Apr-23 21:59S 02°22' W 044°13'0 0.2
2017-Apr-23 21:29S 02°22' W 044°13'0 0.2
2017-Apr-23 20:59S 02°23' W 044°13'0 0.1
2017-Apr-23 20:29S 02°23' W 044°13'0 0.0
2017-Apr-23 19:56S 02°23' W 044°13'0 0.0
2017-Apr-23 19:29S 02°23' W 044°13'0 0.0
2017-Apr-23 18:59S 02°23' W 044°13'0 0.0
2017-Apr-23 18:29S 02°23' W 044°13'0 0.0
2017-Apr-23 17:59S 02°23' W 044°13'0 0.0
2017-Apr-23 17:29S 02°23' W 044°13'0 0.0
2017-Apr-23 16:59S 02°23' W 044°13'0 0.0
2017-Apr-23 16:29S 02°23' W 044°13'0 0.0
2017-Apr-23 15:59S 02°23' W 044°13'0 0.0
2017-Apr-23 15:29S 02°23' W 044°13'0 0.0
2017-Apr-23 14:59S 02°23' W 044°13'0 0.2
2017-Apr-23 13:59S 02°22' W 044°13'0 0.0
2017-Apr-23 13:29S 02°22' W 044°13'0 0.0
2017-Apr-23 12:59S 02°22' W 044°13'0 0.0
2017-Apr-23 12:29S 02°22' W 044°13'0 0.0
2017-Apr-23 11:59S 02°22' W 044°13'0 0.0
2017-Apr-23 11:29S 02°22' W 044°13'0 0.0
2017-Apr-23 10:59S 02°22' W 044°13'0 0.0
2017-Apr-23 10:29S 02°22' W 044°13'0 0.0
2017-Apr-23 09:59S 02°22' W 044°13'0 0.0
2017-Apr-23 09:29S 02°22' W 044°13'0 0.1
2017-Apr-23 08:59S 02°22' W 044°13'0 0.2
2017-Apr-23 08:29S 02°22' W 044°13'0 0.2
2017-Apr-23 07:59S 02°23' W 044°13'0 0.1
2017-Apr-23 07:29S 02°23' W 044°13'0 0.0
2017-Apr-23 06:59S 02°23' W 044°13'0 0.0
2017-Apr-23 06:26S 02°23' W 044°13'0 0.0
2017-Apr-23 05:59S 02°23' W 044°13'0 0.0
2017-Apr-23 05:29S 02°23' W 044°13'0 0.0
2017-Apr-23 04:59S 02°23' W 044°13'0 0.0
2017-Apr-23 04:29S 02°23' W 044°13'0 0.0
2017-Apr-23 03:59S 02°23' W 044°13'0 0.0
2017-Apr-23 03:29S 02°23' W 044°13'0 0.0
2017-Apr-23 02:59S 02°23' W 044°13'0 0.0
2017-Apr-23 02:29S 02°23' W 044°13'0 0.0
2017-Apr-23 01:59S 02°23' W 044°13'0 0.3
2017-Apr-23 01:29S 02°23' W 044°13'0 0.1
2017-Apr-23 00:59S 02°22' W 044°13'0 0.0
2017-Apr-23 00:29S 02°22' W 044°13'0 0.1
2017-Apr-22 23:59S 02°22' W 044°13'0 0.0
2017-Apr-22 23:29S 02°22' W 044°13'0 0.0
2017-Apr-22 22:59S 02°22' W 044°13'0 0.0
2017-Apr-22 22:29S 02°22' W 044°13'0 0.0
2017-Apr-22 21:56S 02°22' W 044°13'0 0.1
2017-Apr-22 21:29S 02°22' W 044°13'0 0.3
2017-Apr-22 20:59S 02°22' W 044°13'0 0.2
2017-Apr-22 20:29S 02°23' W 044°13'0 0.2
2017-Apr-22 19:59S 02°23' W 044°13'0 0.0
2017-Apr-22 19:29S 02°23' W 044°13'0 0.0
2017-Apr-22 18:59S 02°23' W 044°13'0 0.1
2017-Apr-22 18:29S 02°23' W 044°13'0 0.0
2017-Apr-22 17:59S 02°23' W 044°13'0 0.0
2017-Apr-22 17:29S 02°23' W 044°13'0 0.0
2017-Apr-22 16:59S 02°23' W 044°13'0 0.0
2017-Apr-22 16:29S 02°23' W 044°13'0 0.0
2017-Apr-22 15:59S 02°23' W 044°13'0 0.0
2017-Apr-22 15:29S 02°23' W 044°13'0 0.0
2017-Apr-22 14:59S 02°23' W 044°13'0 0.0
2017-Apr-22 14:29S 02°23' W 044°13'0 0.1
2017-Apr-22 13:29S 02°23' W 044°13'0 0.3
2017-Apr-22 12:58S 02°22' W 044°13'0 0.1
2017-Apr-22 12:29S 02°22' W 044°13'0 0.1
2017-Apr-22 11:59S 02°22' W 044°13'0 0.1
2017-Apr-22 11:29S 02°22' W 044°13'0 0.0
2017-Apr-22 10:59S 02°22' W 044°13'0 0.0
2017-Apr-22 10:29S 02°22' W 044°13'0 0.0
2017-Apr-22 09:59S 02°22' W 044°13'0 0.1
2017-Apr-22 09:29S 02°22' W 044°13'0 0.2
2017-Apr-22 08:58S 02°23' W 044°13'0 0.4
2017-Apr-22 08:28S 02°23' W 044°13'0 0.0
2017-Apr-22 07:59S 02°23' W 044°13'0 0.1
2017-Apr-22 07:29S 02°23' W 044°13'0 0.0
2017-Apr-22 06:59S 02°23' W 044°13'0 0.0
2017-Apr-22 06:28S 02°23' W 044°13'0 0.0
2017-Apr-22 05:59S 02°23' W 044°13'0 0.0
2017-Apr-22 05:28S 02°23' W 044°13'0 0.0
2017-Apr-22 04:58S 02°23' W 044°13'0 0.0
2017-Apr-22 04:29S 02°23' W 044°13'0 0.0
2017-Apr-22 03:58S 02°23' W 044°13'0 0.0
2017-Apr-22 03:29S 02°23' W 044°13'0 0.0
2017-Apr-22 02:59S 02°23' W 044°13'0 0.0
2017-Apr-22 02:29S 02°23' W 044°13'0 0.0
2017-Apr-22 01:58S 02°23' W 044°13'0 0.0
2017-Apr-22 01:28S 02°23' W 044°13'0 0.2
2017-Apr-22 00:58S 02°23' W 044°13'0 0.3
2017-Apr-22 00:28S 02°22' W 044°13'0 0.1
2017-Apr-21 23:58S 02°22' W 044°13'0 0.0
2017-Apr-21 23:28S 02°22' W 044°13'0 0.0
2017-Apr-21 22:58S 02°22' W 044°13'0 0.0
2017-Apr-21 22:29S 02°22' W 044°13'0 0.0
2017-Apr-21 21:58S 02°22' W 044°13'0 0.0
2017-Apr-21 21:28S 02°22' W 044°13'0 0.1
2017-Apr-21 20:58S 02°22' W 044°13'0 0.0
2017-Apr-21 20:28S 02°22' W 044°13'0 0.0
2017-Apr-21 19:58S 02°22' W 044°13'0 0.3
2017-Apr-21 19:28S 02°22' W 044°13'0 0.3
2017-Apr-21 18:58S 02°23' W 044°13'0 0.1
2017-Apr-21 18:28S 02°23' W 044°13'0 0.0
2017-Apr-21 17:58S 02°23' W 044°13'0 0.0
2017-Apr-21 17:22S 02°23' W 044°13'0 0.1
2017-Apr-21 16:55S 02°23' W 044°13'0 0.1
2017-Apr-21 16:28S 02°23' W 044°13'0 0.0
2017-Apr-21 15:59S 02°23' W 044°13'0 0.1
2017-Apr-21 15:28S 02°23' W 044°13'0 0.0
2017-Apr-21 14:58S 02°23' W 044°13'0 0.0
2017-Apr-21 14:28S 02°23' W 044°13'0 0.0
2017-Apr-21 13:28S 02°23' W 044°13'0 0.2
2017-Apr-21 12:55S 02°23' W 044°13'0 0.5
2017-Apr-21 12:28S 02°22' W 044°13'0 0.1
2017-Apr-21 11:58S 02°22' W 044°13'0 0.1
2017-Apr-21 11:28S 02°22' W 044°13'0 0.1
2017-Apr-21 10:58S 02°22' W 044°13'0 0.1
2017-Apr-21 10:28S 02°22' W 044°13'0 0.1
2017-Apr-21 09:58S 02°22' W 044°13'0 0.0
2017-Apr-21 09:28S 02°22' W 044°13'0 0.0
2017-Apr-21 08:58S 02°22' W 044°13'0 0.1
2017-Apr-21 08:28S 02°23' W 044°13'0 0.2
2017-Apr-21 07:49S 02°23' W 044°13'0 0.2
2017-Apr-21 07:28S 02°23' W 044°13'0 0.0
2017-Apr-21 06:58S 02°23' W 044°13'0 0.1
2017-Apr-21 06:28S 02°23' W 044°13'0 0.1
2017-Apr-21 05:58S 02°23' W 044°13'0 0.0
2017-Apr-21 05:28S 02°23' W 044°13'0 0.0
2017-Apr-21 04:58S 02°23' W 044°13'0 0.0
2017-Apr-21 04:28S 02°23' W 044°13'0 0.0
2017-Apr-21 03:58S 02°23' W 044°13'0 0.0
2017-Apr-21 03:28S 02°23' W 044°13'0 0.0
2017-Apr-21 02:58S 02°23' W 044°13'0 0.0
2017-Apr-21 02:28S 02°23' W 044°13'0 0.0
2017-Apr-21 01:58S 02°23' W 044°13'0 0.0
2017-Apr-21 01:28S 02°23' W 044°13'0 0.0
2017-Apr-21 00:58S 02°23' W 044°13'0 0.1
2017-Apr-21 00:28S 02°23' W 044°13'0 0.0
2017-Apr-20 23:58S 02°23' W 044°13'0 0.1
2017-Apr-20 23:28S 02°23' W 044°13'0 0.1
2017-Apr-20 22:58S 02°23' W 044°13'0 0.2
2017-Apr-20 22:28S 02°23' W 044°13'0 0.2
2017-Apr-20 21:58S 02°23' W 044°13'0 0.0
2017-Apr-20 21:29S 02°23' W 044°13'0 0.0
2017-Apr-20 20:58S 02°22' W 044°13'0 0.0
2017-Apr-20 20:28S 02°22' W 044°13'0 0.0
2017-Apr-20 19:58S 02°22' W 044°13'0 0.1
2017-Apr-20 19:28S 02°23' W 044°13'0 0.2
2017-Apr-20 18:58S 02°23' W 044°13'0 0.1
2017-Apr-20 18:28S 02°23' W 044°13'0 0.0
2017-Apr-20 17:58S 02°23' W 044°13'0 0.1
2017-Apr-20 17:28S 02°23' W 044°13'0 0.0
2017-Apr-20 16:58S 02°23' W 044°13'0 0.0
2017-Apr-20 16:28S 02°23' W 044°13'0 0.0
2017-Apr-20 15:58S 02°23' W 044°13'0 0.0
2017-Apr-20 15:29S 02°23' W 044°13'0 0.0
2017-Apr-20 14:57S 02°23' W 044°13'0 0.0
2017-Apr-20 12:40S 02°23' W 044°13'0 0.1
2017-Apr-20 12:25S 02°23' W 044°13'0 0.1
2017-Apr-20 11:58S 02°23' W 044°13'0 0.2
2017-Apr-20 11:28S 02°23' W 044°13'0 0.2
2017-Apr-20 10:58S 02°23' W 044°13'0 0.1
2017-Apr-20 10:28S 02°22' W 044°13'0 0.1
2017-Apr-20 09:58S 02°22' W 044°13'0 0.0
2017-Apr-20 09:28S 02°22' W 044°13'0 0.0
2017-Apr-20 08:58S 02°22' W 044°13'0 0.0
2017-Apr-20 08:28S 02°22' W 044°13'0 0.0
2017-Apr-20 07:58S 02°22' W 044°13'0 0.0
2017-Apr-20 07:28S 02°22' W 044°13'0 0.0
2017-Apr-20 06:58S 02°22' W 044°13'0 0.0
2017-Apr-20 06:28S 02°22' W 044°13'0 0.4
2017-Apr-20 05:58S 02°23' W 044°13'0 0.1
2017-Apr-20 05:28S 02°23' W 044°13'0 0.0
2017-Apr-20 04:58S 02°23' W 044°13'0 0.0
2017-Apr-20 04:28S 02°23' W 044°13'0 0.0
2017-Apr-20 03:58S 02°23' W 044°13'0 0.0
2017-Apr-20 03:28S 02°23' W 044°13'0 0.0
2017-Apr-20 02:58S 02°23' W 044°13'0 0.0
2017-Apr-20 02:28S 02°23' W 044°13'0 0.0
2017-Apr-20 01:58S 02°23' W 044°13'0 0.0
2017-Apr-20 01:28S 02°23' W 044°13'0 0.0
2017-Apr-20 00:58S 02°23' W 044°13'0 0.0
2017-Apr-20 00:28S 02°23' W 044°13'0 0.0
2017-Apr-19 23:58S 02°23' W 044°13'0 0.0
2017-Apr-19 23:28S 02°23' W 044°13'0 0.0
2017-Apr-19 22:58S 02°23' W 044°13'0 0.3
2017-Apr-19 22:28S 02°23' W 044°13'0 0.2
2017-Apr-19 21:58S 02°23' W 044°13'0 0.0
2017-Apr-19 21:28S 02°23' W 044°13'0 0.3
2017-Apr-19 20:58S 02°22' W 044°13'0 0.3
2017-Apr-19 20:28S 02°22' W 044°13'0 0.0
2017-Apr-19 19:58S 02°22' W 044°13'0 0.0
2017-Apr-19 19:28S 02°22' W 044°13'0 0.0
2017-Apr-19 18:58S 02°22' W 044°13'0 0.0
2017-Apr-19 18:28S 02°23' W 044°13'0 0.1
2017-Apr-19 17:58S 02°23' W 044°13'0 0.1
2017-Apr-19 17:28S 02°23' W 044°13'0 0.1
2017-Apr-19 16:58S 02°23' W 044°13'0 0.0
2017-Apr-19 16:28S 02°23' W 044°13'0 0.1
2017-Apr-19 15:58S 02°23' W 044°13'0 0.0
2017-Apr-19 15:28S 02°23' W 044°13'0 0.0
2017-Apr-19 14:58S 02°23' W 044°13'0 0.0
2017-Apr-19 14:26S 02°23' W 044°13'0 0.0
2017-Apr-19 13:25S 02°23' W 044°13'0 0.0
2017-Apr-19 12:58S 02°23' W 044°13'  
Track history (hours):
 
Tides and Currents Weather Stations Pressure Air Temp Water Temp Dewpoint Dewpoint Depression Visibility Wind Speed Wind Dir Waves Ship Positions

Saronic Champion

Last reported at 2017-Apr-26 06:53 UTC. Time now 2017-May-25 05:15 UTC.
Position S 02°12' W 044°11'.
Warning: this ship's position is 28 days out of date.

Length 229 m; draft 14.9 m.

Type: Cargo ship. MMSI: 636014887.

Date/timePositionNaut miles runAvg speedWind from/ knotsBaromVisibWave heightAir tempDewpointWater temp
2017-Apr-26 06:53S 02°12' W 044°11'510.8
2017-Apr-26 06:26S 02°16' W 044°14'510.9
2017-Apr-26 05:57S 02°20' W 044°17'510.8
2017-Apr-26 05:30S 02°24' W 044°19'611.2
2017-Apr-26 05:01S 02°29' W 044°22'5 0.7
2017-Apr-25 22:45S 02°34' W 044°23'0 0.0
2017-Apr-25 22:29S 02°34' W 044°23'0 0.0
2017-Apr-25 21:24S 02°34' W 044°23'0 0.0
2017-Apr-25 20:59S 02°34' W 044°23'0 0.0
2017-Apr-25 20:23S 02°34' W 044°23'0 0.0
2017-Apr-25 19:59S 02°34' W 044°23'0 0.0
2017-Apr-25 19:30S 02°34' W 044°23'0 0.0
2017-Apr-25 19:00S 02°34' W 044°23'0 0.0
2017-Apr-25 18:21S 02°34' W 044°23'0 0.0
2017-Apr-25 17:54S 02°34' W 044°23'0 0.0
2017-Apr-25 17:30S 02°34' W 044°23'0 0.0
2017-Apr-25 16:45S 02°34' W 044°23'0 0.0
2017-Apr-25 16:18S 02°34' W 044°23'0 0.0
2017-Apr-25 16:00S 02°34' W 044°23'0 0.0
2017-Apr-25 15:29S 02°34' W 044°23'0 0.0
2017-Apr-25 14:59S 02°34' W 044°23'0 0.0
2017-Apr-25 13:53S 02°34' W 044°23'0 0.0
2017-Apr-25 13:26S 02°34' W 044°23'0 0.0
2017-Apr-25 12:57S 02°34' W 044°23'0 0.0
2017-Apr-25 11:41S 02°34' W 044°23'0 0.0
2017-Apr-25 11:29S 02°34' W 044°23'0 0.0
2017-Apr-25 10:59S 02°34' W 044°23'0 0.0
2017-Apr-25 10:29S 02°34' W 044°23'0 0.0
2017-Apr-25 09:59S 02°34' W 044°23'0 0.0
2017-Apr-25 09:29S 02°34' W 044°23'0 0.0
2017-Apr-25 08:59S 02°34' W 044°23'0 0.0
2017-Apr-25 08:29S 02°34' W 044°23'0 0.6
2017-Apr-25 08:00S 02°34' W 044°23'3 6.0
2017-Apr-25 07:30S 02°31' W 044°23'510.1
2017-Apr-25 07:00S 02°26' W 044°21'1 2.6
2017-Apr-25 06:31S 02°25' W 044°20'2 4.4
2017-Apr-25 06:01S 02°24' W 044°18'4 7.0
2017-Apr-25 05:30S 02°22' W 044°15'2 4.2
2017-Apr-25 05:00S 02°23' W 044°13'0 0.1
2017-Apr-25 04:29S 02°23' W 044°13'0 0.3
2017-Apr-25 03:59S 02°22' W 044°13'0 0.2
2017-Apr-25 03:29S 02°22' W 044°13'0 0.0
2017-Apr-25 02:59S 02°22' W 044°13'0 0.0
2017-Apr-25 02:29S 02°22' W 044°13'0 0.0
2017-Apr-25 01:59S 02°22' W 044°13'0 0.0
2017-Apr-25 01:29S 02°22' W 044°13'0 0.0
2017-Apr-25 00:59S 02°22' W 044°13'0 0.0
2017-Apr-25 00:29S 02°22' W 044°13'0 0.1
2017-Apr-24 23:59S 02°22' W 044°13'0 0.0
2017-Apr-24 23:29S 02°22' W 044°13'0 0.0
2017-Apr-24 22:59S 02°22' W 044°13'0 0.2
2017-Apr-24 22:29S 02°22' W 044°13'0 0.2
2017-Apr-24 21:59S 02°22' W 044°13'0 0.2
2017-Apr-24 21:29S 02°23' W 044°13'0 0.1
2017-Apr-24 20:56S 02°23' W 044°13'0 0.0
2017-Apr-24 20:29S 02°23' W 044°13'0 0.0
2017-Apr-24 19:59S 02°23' W 044°13'0 0.0
2017-Apr-24 19:29S 02°23' W 044°13'0 0.0
2017-Apr-24 18:59S 02°23' W 044°13'0 0.0
2017-Apr-24 18:29S 02°23' W 044°13'0 0.1
2017-Apr-24 17:59S 02°23' W 044°13'0 0.1
2017-Apr-24 17:29S 02°23' W 044°13'0 0.1
2017-Apr-24 16:59S 02°23' W 044°13'0 0.0
2017-Apr-24 16:29S 02°23' W 044°13'0 0.1
2017-Apr-24 15:59S 02°23' W 044°13'0 0.1
2017-Apr-24 15:29S 02°23' W 044°13'0 0.2
2017-Apr-24 14:59S 02°23' W 044°13'0 0.2
2017-Apr-24 14:29S 02°22' W 044°13'0 0.0
2017-Apr-24 13:26S 02°22' W 044°13'0 0.0
2017-Apr-24 12:56S 02°22' W 044°13'0 0.0
2017-Apr-24 12:26S 02°22' W 044°13'0 0.0
2017-Apr-24 11:59S 02°22' W 044°13'0 0.0
2017-Apr-24 11:29S 02°22' W 044°13'0 0.0
2017-Apr-24 10:59S 02°22' W 044°13'0 0.1
2017-Apr-24 10:29S 02°22' W 044°13'0 0.1
2017-Apr-24 09:59S 02°22' W 044°13'0 0.3
2017-Apr-24 09:29S 02°23' W 044°13'0 0.2
2017-Apr-24 08:59S 02°23' W 044°13'0 0.1
2017-Apr-24 08:29S 02°23' W 044°13'0 0.0
2017-Apr-24 07:59S 02°23' W 044°13'0 0.0
2017-Apr-24 07:26S 02°23' W 044°13'0 0.0
2017-Apr-24 06:59S 02°23' W 044°13'0 0.0
2017-Apr-24 06:29S 02°23' W 044°13'0 0.0
2017-Apr-24 05:59S 02°23' W 044°13'0 0.0
2017-Apr-24 05:29S 02°23' W 044°13'0 0.0
2017-Apr-24 04:59S 02°23' W 044°13'0 0.1
2017-Apr-24 04:29S 02°23' W 044°13'0 0.0
2017-Apr-24 03:59S 02°23' W 044°13'0 0.0
2017-Apr-24 03:29S 02°23' W 044°13'0 0.1
2017-Apr-24 02:59S 02°23' W 044°13'0 0.3
2017-Apr-24 02:29S 02°22' W 044°13'0 0.1
2017-Apr-24 01:59S 02°22' W 044°13'0 0.0
2017-Apr-24 01:29S 02°22' W 044°13'0 0.0
2017-Apr-24 00:59S 02°22' W 044°13'0 0.0
2017-Apr-24 00:29S 02°22' W 044°13'0 0.0
2017-Apr-23 23:59S 02°22' W 044°13'0 0.0
2017-Apr-23 23:29S 02°22' W 044°13'0 0.0
2017-Apr-23 22:59S 02°22' W 044°13'0 0.0
2017-Apr-23 22:29S 02°22' W 044°13'0 0.0
2017-Apr-23 21:59S 02°22' W 044°13'0 0.2
2017-Apr-23 21:29S 02°22' W 044°13'0 0.2
2017-Apr-23 20:59S 02°23' W 044°13'0 0.1
2017-Apr-23 20:29S 02°23' W 044°13'0 0.0
2017-Apr-23 19:56S 02°23' W 044°13'0 0.0
2017-Apr-23 19:29S 02°23' W 044°13'0 0.0
2017-Apr-23 18:59S 02°23' W 044°13'0 0.0
2017-Apr-23 18:29S 02°23' W 044°13'0 0.0
2017-Apr-23 17:59S 02°23' W 044°13'0 0.0
2017-Apr-23 17:29S 02°23' W 044°13'0 0.0
2017-Apr-23 16:59S 02°23' W 044°13'0 0.0
2017-Apr-23 16:29S 02°23' W 044°13'0 0.0
2017-Apr-23 15:59S 02°23' W 044°13'0 0.0
2017-Apr-23 15:29S 02°23' W 044°13'0 0.0
2017-Apr-23 14:59S 02°23' W 044°13'0 0.2
2017-Apr-23 13:59S 02°22' W 044°13'0 0.0
2017-Apr-23 13:29S 02°22' W 044°13'0 0.0
2017-Apr-23 12:59S 02°22' W 044°13'0 0.0
2017-Apr-23 12:29S 02°22' W 044°13'0 0.0
2017-Apr-23 11:59S 02°22' W 044°13'0 0.0
2017-Apr-23 11:29S 02°22' W 044°13'0 0.0
2017-Apr-23 10:59S 02°22' W 044°13'0 0.0
2017-Apr-23 10:29S 02°22' W 044°13'0 0.0
2017-Apr-23 09:59S 02°22' W 044°13'0 0.0
2017-Apr-23 09:29S 02°22' W 044°13'0 0.1
2017-Apr-23 08:59S 02°22' W 044°13'0 0.2
2017-Apr-23 08:29S 02°22' W 044°13'0 0.2
2017-Apr-23 07:59S 02°23' W 044°13'0 0.1
2017-Apr-23 07:29S 02°23' W 044°13'0 0.0
2017-Apr-23 06:59S 02°23' W 044°13'0 0.0
2017-Apr-23 06:26S 02°23' W 044°13'0 0.0
2017-Apr-23 05:59S 02°23' W 044°13'0 0.0
2017-Apr-23 05:29S 02°23' W 044°13'0 0.0
2017-Apr-23 04:59S 02°23' W 044°13'0 0.0
2017-Apr-23 04:29S 02°23' W 044°13'0 0.0
2017-Apr-23 03:59S 02°23' W 044°13'0 0.0
2017-Apr-23 03:29S 02°23' W 044°13'0 0.0
2017-Apr-23 02:59S 02°23' W 044°13'0 0.0
2017-Apr-23 02:29S 02°23' W 044°13'0 0.0
2017-Apr-23 01:59S 02°23' W 044°13'0 0.3
2017-Apr-23 01:29S 02°23' W 044°13'0 0.1
2017-Apr-23 00:59S 02°22' W 044°13'0 0.0
2017-Apr-23 00:29S 02°22' W 044°13'0 0.1
2017-Apr-22 23:59S 02°22' W 044°13'0 0.0
2017-Apr-22 23:29S 02°22' W 044°13'0 0.0
2017-Apr-22 22:59S 02°22' W 044°13'0 0.0
2017-Apr-22 22:29S 02°22' W 044°13'0 0.0
2017-Apr-22 21:56S 02°22' W 044°13'0 0.1
2017-Apr-22 21:29S 02°22' W 044°13'0 0.3
2017-Apr-22 20:59S 02°22' W 044°13'0 0.2
2017-Apr-22 20:29S 02°23' W 044°13'0 0.2
2017-Apr-22 19:59S 02°23' W 044°13'0 0.0
2017-Apr-22 19:29S 02°23' W 044°13'0 0.0
2017-Apr-22 18:59S 02°23' W 044°13'0 0.1
2017-Apr-22 18:29S 02°23' W 044°13'0 0.0
2017-Apr-22 17:59S 02°23' W 044°13'0 0.0
2017-Apr-22 17:29S 02°23' W 044°13'0 0.0
2017-Apr-22 16:59S 02°23' W 044°13'0 0.0
2017-Apr-22 16:29S 02°23' W 044°13'0 0.0
2017-Apr-22 15:59S 02°23' W 044°13'0 0.0
2017-Apr-22 15:29S 02°23' W 044°13'0 0.0
2017-Apr-22 14:59S 02°23' W 044°13'0 0.0
2017-Apr-22 14:29S 02°23' W 044°13'0 0.1
2017-Apr-22 13:29S 02°23' W 044°13'0 0.3
2017-Apr-22 12:58S 02°22' W 044°13'0 0.1
2017-Apr-22 12:29S 02°22' W 044°13'0 0.1
2017-Apr-22 11:59S 02°22' W 044°13'0 0.1
2017-Apr-22 11:29S 02°22' W 044°13'0 0.0
2017-Apr-22 10:59S 02°22' W 044°13'0 0.0
2017-Apr-22 10:29S 02°22' W 044°13'0 0.0
2017-Apr-22 09:59S 02°22' W 044°13'0 0.1
2017-Apr-22 09:29S 02°22' W 044°13'0 0.2
2017-Apr-22 08:58S 02°23' W 044°13'0 0.4
2017-Apr-22 08:28S 02°23' W 044°13'0 0.0
2017-Apr-22 07:59S 02°23' W 044°13'0 0.1
2017-Apr-22 07:29S 02°23' W 044°13'0 0.0
2017-Apr-22 06:59S 02°23' W 044°13'0 0.0
2017-Apr-22 06:28S 02°23' W 044°13'0 0.0
2017-Apr-22 05:59S 02°23' W 044°13'0 0.0
2017-Apr-22 05:28S 02°23' W 044°13'0 0.0
2017-Apr-22 04:58S 02°23' W 044°13'0 0.0
2017-Apr-22 04:29S 02°23' W 044°13'0 0.0
2017-Apr-22 03:58S 02°23' W 044°13'0 0.0
2017-Apr-22 03:29S 02°23' W 044°13'0 0.0
2017-Apr-22 02:59S 02°23' W 044°13'0 0.0
2017-Apr-22 02:29S 02°23' W 044°13'0 0.0
2017-Apr-22 01:58S 02°23' W 044°13'0 0.0
2017-Apr-22 01:28S 02°23' W 044°13'0 0.2
2017-Apr-22 00:58S 02°23' W 044°13'0 0.3
2017-Apr-22 00:28S 02°22' W 044°13'0 0.1
2017-Apr-21 23:58S 02°22' W 044°13'0 0.0
2017-Apr-21 23:28S 02°22' W 044°13'0 0.0
2017-Apr-21 22:58S 02°22' W 044°13'0 0.0
2017-Apr-21 22:29S 02°22' W 044°13'0 0.0
2017-Apr-21 21:58S 02°22' W 044°13'0 0.0
2017-Apr-21 21:28S 02°22' W 044°13'0 0.1
2017-Apr-21 20:58S 02°22' W 044°13'0 0.0
2017-Apr-21 20:28S 02°22' W 044°13'0 0.0
2017-Apr-21 19:58S 02°22' W 044°13'0 0.3
2017-Apr-21 19:28S 02°22' W 044°13'0 0.3
2017-Apr-21 18:58S 02°23' W 044°13'0 0.1
2017-Apr-21 18:28S 02°23' W 044°13'0 0.0
2017-Apr-21 17:58S 02°23' W 044°13'0 0.0
2017-Apr-21 17:22S 02°23' W 044°13'0 0.1
2017-Apr-21 16:55S 02°23' W 044°13'0 0.1
2017-Apr-21 16:28S 02°23' W 044°13'0 0.0
2017-Apr-21 15:59S 02°23' W 044°13'0 0.1
2017-Apr-21 15:28S 02°23' W 044°13'0 0.0
2017-Apr-21 14:58S 02°23' W 044°13'0 0.0
2017-Apr-21 14:28S 02°23' W 044°13'0 0.0
2017-Apr-21 13:28S 02°23' W 044°13'0 0.2
2017-Apr-21 12:55S 02°23' W 044°13'0 0.5
2017-Apr-21 12:28S 02°22' W 044°13'0 0.1
2017-Apr-21 11:58S 02°22' W 044°13'0 0.1
2017-Apr-21 11:28S 02°22' W 044°13'0 0.1
2017-Apr-21 10:58S 02°22' W 044°13'0 0.1
2017-Apr-21 10:28S 02°22' W 044°13'0 0.1
2017-Apr-21 09:58S 02°22' W 044°13'0 0.0
2017-Apr-21 09:28S 02°22' W 044°13'0 0.0
2017-Apr-21 08:58S 02°22' W 044°13'0 0.1
2017-Apr-21 08:28S 02°23' W 044°13'0 0.2
2017-Apr-21 07:49S 02°23' W 044°13'0 0.2
2017-Apr-21 07:28S 02°23' W 044°13'0 0.0
2017-Apr-21 06:58S 02°23' W 044°13'0 0.1
2017-Apr-21 06:28S 02°23' W 044°13'0 0.1
2017-Apr-21 05:58S 02°23' W 044°13'0 0.0
2017-Apr-21 05:28S 02°23' W 044°13'0 0.0
2017-Apr-21 04:58S 02°23' W 044°13'0 0.0
2017-Apr-21 04:28S 02°23' W 044°13'0 0.0
2017-Apr-21 03:58S 02°23' W 044°13'0 0.0
2017-Apr-21 03:28S 02°23' W 044°13'0 0.0
2017-Apr-21 02:58S 02°23' W 044°13'0 0.0
2017-Apr-21 02:28S 02°23' W 044°13'0 0.0
2017-Apr-21 01:58S 02°23' W 044°13'0 0.0
2017-Apr-21 01:28S 02°23' W 044°13'0 0.0
2017-Apr-21 00:58S 02°23' W 044°13'0 0.1
2017-Apr-21 00:28S 02°23' W 044°13'0 0.0
2017-Apr-20 23:58S 02°23' W 044°13'0 0.1
2017-Apr-20 23:28S 02°23' W 044°13'0 0.1
2017-Apr-20 22:58S 02°23' W 044°13'0 0.2
2017-Apr-20 22:28S 02°23' W 044°13'0 0.2
2017-Apr-20 21:58S 02°23' W 044°13'0 0.0
2017-Apr-20 21:29S 02°23' W 044°13'0 0.0
2017-Apr-20 20:58S 02°22' W 044°13'0 0.0
2017-Apr-20 20:28S 02°22' W 044°13'0 0.0
2017-Apr-20 19:58S 02°22' W 044°13'0 0.1
2017-Apr-20 19:28S 02°23' W 044°13'0 0.2
2017-Apr-20 18:58S 02°23' W 044°13'0 0.1
2017-Apr-20 18:28S 02°23' W 044°13'0 0.0
2017-Apr-20 17:58S 02°23' W 044°13'0 0.1
2017-Apr-20 17:28S 02°23' W 044°13'0 0.0
2017-Apr-20 16:58S 02°23' W 044°13'0 0.0
2017-Apr-20 16:28S 02°23' W 044°13'0 0.0
2017-Apr-20 15:58S 02°23' W 044°13'0 0.0
2017-Apr-20 15:29S 02°23' W 044°13'0 0.0
2017-Apr-20 14:57S 02°23' W 044°13'0 0.0
2017-Apr-20 12:40S 02°23' W 044°13'0 0.1
2017-Apr-20 12:25S 02°23' W 044°13'0 0.1
2017-Apr-20 11:58S 02°23' W 044°13'0 0.2
2017-Apr-20 11:28S 02°23' W 044°13'0 0.2
2017-Apr-20 10:58S 02°23' W 044°13'0 0.1
2017-Apr-20 10:28S 02°22' W 044°13'0 0.1
2017-Apr-20 09:58S 02°22' W 044°13'0 0.0
2017-Apr-20 09:28S 02°22' W 044°13'0 0.0
2017-Apr-20 08:58S 02°22' W 044°13'0 0.0
2017-Apr-20 08:28S 02°22' W 044°13'0 0.0
2017-Apr-20 07:58S 02°22' W 044°13'0 0.0
2017-Apr-20 07:28S 02°22' W 044°13'0 0.0
2017-Apr-20 06:58S 02°22' W 044°13'0 0.0
2017-Apr-20 06:28S 02°22' W 044°13'0 0.4
2017-Apr-20 05:58S 02°23' W 044°13'0 0.1
2017-Apr-20 05:28S 02°23' W 044°13'0 0.0
2017-Apr-20 04:58S 02°23' W 044°13'0 0.0
2017-Apr-20 04:28S 02°23' W 044°13'0 0.0
2017-Apr-20 03:58S 02°23' W 044°13'0 0.0
2017-Apr-20 03:28S 02°23' W 044°13'0 0.0
2017-Apr-20 02:58S 02°23' W 044°13'0 0.0
2017-Apr-20 02:28S 02°23' W 044°13'0 0.0
2017-Apr-20 01:58S 02°23' W 044°13'0 0.0
2017-Apr-20 01:28S 02°23' W 044°13'0 0.0
2017-Apr-20 00:58S 02°23' W 044°13'0 0.0
2017-Apr-20 00:28S 02°23' W 044°13'0 0.0
2017-Apr-19 23:58S 02°23' W 044°13'0 0.0
2017-Apr-19 23:28S 02°23' W 044°13'0 0.0
2017-Apr-19 22:58S 02°23' W 044°13'0 0.3
2017-Apr-19 22:28S 02°23' W 044°13'0 0.2
2017-Apr-19 21:58S 02°23' W 044°13'0 0.0
2017-Apr-19 21:28S 02°23' W 044°13'0 0.3
2017-Apr-19 20:58S 02°22' W 044°13'0 0.3
2017-Apr-19 20:28S 02°22' W 044°13'0 0.0
2017-Apr-19 19:58S 02°22' W 044°13'0 0.0
2017-Apr-19 19:28S 02°22' W 044°13'0 0.0
2017-Apr-19 18:58S 02°22' W 044°13'0 0.0
2017-Apr-19 18:28S 02°23' W 044°13'0 0.1
2017-Apr-19 17:58S 02°23' W 044°13'0 0.1
2017-Apr-19 17:28S 02°23' W 044°13'0 0.1
2017-Apr-19 16:58S 02°23' W 044°13'0 0.0
2017-Apr-19 16:28S 02°23' W 044°13'0 0.1
2017-Apr-19 15:58S 02°23' W 044°13'0 0.0
2017-Apr-19 15:28S 02°23' W 044°13'0 0.0
2017-Apr-19 14:58S 02°23' W 044°13'0 0.0
2017-Apr-19 14:26S 02°23' W 044°13'0 0.0
2017-Apr-19 13:25S 02°23' W 044°13'0 0.0
2017-Apr-19 12:58S 02°23' W 044°13'  

Dump ship's entire track history